Time;durP1;ratioP1;P1;durP2;ratioP2;P2;SDS_P1;SDS_P2;PMS_P1;PMS_P2;Temp;Humidity;BMP_temperature;BMP_pressure;BME280_temperature;BME280_humidity;BME280_pressure;Samples;Min_cycle;Max_cycle;Signal;HPM_P1;HPM_P2
2021/12/24 00:01:08;;;;;;;48.70;22.00;;;;;;;-1.47;80.43;97162.18;103842;1323;25503;-84
2021/12/24 00:03:35;;;;;;;42.90;21.50;;;;;;;-1.49;80.54;97151.20;103099;1324;138776;-86
2021/12/24 00:06:04;;;;;;;44.70;22.40;;;;;;;-1.49;80.64;97147.02;103393;1325;23233;-84
2021/12/24 00:08:30;;;;;;;57.70;24.40;;;;;;;-1.50;81.01;97144.80;103221;1325;25271;-83
2021/12/24 00:10:59;;;;;;;53.40;24.30;;;;;;;-1.50;81.35;97142.50;103319;1325;137794;-83
2021/12/24 00:13:28;;;;;;;46.90;23.90;;;;;;;-1.51;81.47;97137.16;103354;1322;22638;-84
2021/12/24 00:37:16;;;;;;;34.70;17.60;;;;;;;-1.55;83.38;97114.91;103672;1325;29277;-83
2021/12/24 00:40:18;;;;;;;;;;;;;;;-1.56;83.50;97112.05;103865;1320;137885;-83
2021/12/24 00:42:36;;;;;;;36.40;16.90;;;;;;;-1.56;83.76;97096.81;103387;1325;22767;-84
2021/12/24 00:45:04;;;;;;;35.60;17.20;;;;;;;-1.58;83.98;97083.59;103462;1322;22612;-83
2021/12/24 00:47:30;;;;;;;34.60;16.60;;;;;;;-1.59;84.01;97089.41;103439;1325;138424;-82
2021/12/24 00:49:57;;;;;;;34.30;16.10;;;;;;;-1.59;84.24;97077.30;103632;1319;23371;-83
2021/12/24 00:55:10;;;;;;;39.70;16.70;;;;;;;-1.59;84.85;97066.05;103664;1319;24228;-82
2021/12/24 00:57:42;;;;;;;35.70;16.60;;;;;;;-1.58;85.00;97061.85;103386;1325;138607;-83
2021/12/24 01:00:23;;;;;;;30.40;16.10;;;;;;;-1.56;85.12;97056.81;103438;1322;23321;-82
2021/12/24 01:02:51;;;;;;;32.80;15.70;;;;;;;-1.55;85.08;97046.67;103476;1325;23973;-82
2021/12/24 01:05:19;;;;;;;25.70;13.90;;;;;;;-1.55;85.34;97043.75;103397;1325;137749;-83
2021/12/24 01:07:46;;;;;;;27.90;14.50;;;;;;;-1.54;85.44;97037.64;103244;1322;22657;-83
2021/12/24 01:10:15;;;;;;;29.60;14.90;;;;;;;-1.55;85.65;97034.19;103427;1325;137901;-82
2021/12/24 01:12:41;;;;;;;29.10;15.50;;;;;;;-1.55;85.65;97032.00;103606;1325;24017;-82
2021/12/24 01:15:09;;;;;;;26.60;14.20;;;;;;;-1.54;85.86;97035.25;103588;1321;25469;-82
2021/12/24 01:17:42;;;;;;;25.90;14.70;;;;;;;-1.51;85.96;97029.27;103399;1322;137915;-82
2021/12/24 01:20:22;;;;;;;28.60;15.10;;;;;;;-1.49;86.21;97026.30;103403;1325;22635;-82
2021/12/24 01:28:34;;;;;;;26.10;14.50;;;;;;;-1.41;86.43;97005.20;103624;1318;138203;-82
2021/12/24 01:44:48;;;;;;;30.90;13.60;;;;;;;-1.26;87.08;96973.73;103330;1318;22632;-81
2021/12/24 01:47:14;;;;;;;26.00;12.90;;;;;;;-1.26;87.18;96972.83;103057;1322;137618;-84
2021/12/24 01:49:41;;;;;;;25.70;12.80;;;;;;;-1.27;87.22;96965.15;102962;1324;25428;-83
2021/12/24 01:52:08;;;;;;;24.50;12.60;;;;;;;-1.28;87.33;96957.48;103189;1322;138691;-83
2021/12/24 01:54:39;;;;;;;19.30;10.80;;;;;;;-1.28;87.45;96951.55;103473;1323;22571;-86
2021/12/24 01:57:20;;;;;;;17.80;10.30;;;;;;;-1.28;87.64;96950.70;103063;1321;23371;-83
2021/12/24 01:59:47;;;;;;;19.20;9.80;;;;;;;-1.28;87.72;96949.41;103016;1319;138777;-82
2021/12/24 02:02:13;;;;;;;20.60;11.90;;;;;;;-1.29;87.93;96949.73;103290;1320;22613;-84
2021/12/24 02:04:42;;;;;;;20.30;10.90;;;;;;;-1.29;88.11;96946.56;102900;1323;138658;-85
2021/12/24 02:07:08;;;;;;;21.30;10.30;;;;;;;-1.29;88.23;96941.44;102979;1326;25387;-83
2021/12/24 02:09:38;;;;;;;18.70;9.70;;;;;;;-1.28;88.32;96937.25;103238;1324;25736;-83
2021/12/24 02:12:09;;;;;;;22.30;10.70;;;;;;;-1.28;88.48;96936.39;103039;1323;137257;-83
2021/12/24 02:14:38;;;;;;;15.70;9.80;;;;;;;-1.26;88.73;96933.02;102961;1320;22584;-83
2021/12/24 02:28:36;;;;;;;17.40;10.30;;;;;;;-1.20;89.06;96909.98;103404;1319;138198;-83
2021/12/24 02:31:05;;;;;;;17.10;9.70;;;;;;;-1.21;89.32;96905.52;103345;1318;22679;-82
2021/12/24 02:33:31;;;;;;;19.20;10.40;;;;;;;-1.19;89.29;96902.52;102882;1323;24254;-85
2021/12/24 02:35:58;;;;;;;17.40;9.00;;;;;;;-1.18;89.41;96901.06;103116;1318;138266;-82
2021/12/24 02:38:24;;;;;;;17.70;9.30;;;;;;;-1.15;89.30;96903.20;103220;1319;22616;-82
2021/12/24 02:40:51;;;;;;;18.40;10.70;;;;;;;-1.14;89.57;96896.14;103152;1324;137544;-82
2021/12/24 02:43:21;;;;;;;19.10;10.50;;;;;;;-1.13;89.39;96893.34;103017;1325;25374;-82
2021/12/24 02:45:49;;;;;;;15.20;9.30;;;;;;;-1.12;89.64;96890.09;103042;1327;139282;-82
2021/12/24 02:57:06;;;;;;;17.30;10.50;;;;;;;-1.12;89.75;96868.60;103312;1324;24480;-82
2021/12/24 02:59:36;;;;;;;16.60;9.70;;;;;;;-1.11;89.85;96865.46;102969;1319;138710;-83
2021/12/24 03:02:03;;;;;;;17.30;9.50;;;;;;;-1.09;90.03;96865.31;103018;1322;24270;-82
2021/12/24 03:04:29;;;;;;;18.10;9.70;;;;;;;-1.08;90.04;96861.39;103451;1318;137575;-82
2021/12/24 03:06:55;;;;;;;17.60;10.30;;;;;;;-1.07;90.04;96857.03;103128;1321;25483;-82
2021/12/24 03:09:22;;;;;;;18.10;10.80;;;;;;;-1.06;90.00;96855.43;103145;1323;24359;-83
2021/12/24 03:11:52;;;;;;;16.40;9.80;;;;;;;-1.03;90.25;96852.92;102923;1323;139235;-83
2021/12/24 03:14:24;;;;;;;18.10;10.00;;;;;;;-1.00;90.06;96859.23;103379;1319;22739;-83
2021/12/24 03:16:57;;;;;;;14.70;8.80;;;;;;;-0.98;90.35;96870.62;103266;1325;137498;-83
2021/12/24 03:19:28;;;;;;;14.70;10.20;;;;;;;-0.97;90.13;96852.69;103326;1325;25377;-84
2021/12/24 03:24:40;;;;;;;15.80;9.60;;;;;;;-0.94;90.20;96845.82;103351;1319;24316;-85
2021/12/24 03:27:08;;;;;;;16.70;9.30;;;;;;;-0.92;90.28;96849.83;103496;1324;24467;-84
2021/12/24 03:29:35;;;;;;;15.70;9.30;;;;;;;-0.91;90.37;96842.10;103334;1319;137602;-85
2021/12/24 03:32:03;;;;;;;17.10;10.80;;;;;;;-0.93;90.39;96844.98;103454;1325;22780;-84
2021/12/24 03:34:30;;;;;;;16.50;11.00;;;;;;;-0.91;90.66;96848.14;103411;1318;138612;-85
2021/12/24 03:36:58;;;;;;;15.50;10.50;;;;;;;-0.91;90.44;96841.07;103421;1326;22626;-84
2021/12/24 03:39:27;;;;;;;18.00;9.70;;;;;;;-0.88;90.57;96836.66;103370;1325;22803;-84
2021/12/24 03:41:53;;;;;;;16.80;10.70;;;;;;;-0.85;90.51;96833.56;102687;1319;137441;-84
2021/12/24 03:44:20;;;;;;;15.50;9.80;;;;;;;-0.83;90.53;96837.17;103046;1325;22653;-85
2021/12/24 03:54:58;;;;;;;14.30;9.70;;;;;;;-0.75;90.59;96813.29;103374;1323;22630;-85
2021/12/24 03:57:42;;;;;;;18.30;10.50;;;;;;;-0.74;90.62;96810.69;103197;1325;22593;-83
2021/12/24 04:00:31;;;;;;;15.90;9.50;;;;;;;-0.73;90.70;96818.20;103240;1319;138114;-84
2021/12/24 04:03:17;;;;;;;18.80;10.40;;;;;;;-0.72;90.58;96819.27;103068;1321;24296;-86
2021/12/24 04:05:46;;;;;;;16.90;10.50;;;;;;;-0.69;90.74;96825.51;103089;1325;137902;-86
2021/12/24 04:08:39;;;;;;;15.80;9.70;;;;;;;-0.68;90.72;96826.91;102931;1325;25414;-85
2021/12/24 04:11:31;;;;;;;18.90;11.10;;;;;;;-0.67;90.78;96819.17;102962;1321;138699;-86
2021/12/24 04:13:59;;;;;;;16.60;10.60;;;;;;;-0.66;90.89;96811.79;103038;1328;25284;-86
2021/12/24 04:16:28;;;;;;;13.60;9.20;;;;;;;-0.63;90.91;96810.84;103054;1322;138577;-87
2021/12/24 04:27:27;;;;;;;17.20;9.50;;;;;;;-0.55;90.95;96811.45;103257;1325;22614;-85
2021/12/24 04:30:09;;;;;;;14.50;10.10;;;;;;;-0.54;90.85;96798.20;103389;1319;138201;-87
2021/12/24 04:35:37;;;;;;;17.30;10.70;;;;;;;-0.48;91.23;96794.91;102955;1326;138129;-87
2021/12/24 04:52:02;;;;;;;26.60;12.00;;;;;;;-0.32;91.31;96788.02;103431;1318;22708;-87
2021/12/24 05:03:02;;;;;;;17.70;11.10;;;;;;;-0.21;91.27;96777.35;103131;1322;31888;-86
2021/12/24 05:05:49;;;;;;;17.40;11.40;;;;;;;-0.21;90.99;96779.65;103306;1319;138792;-85
2021/12/24 05:08:24;;;;;;;17.00;10.80;;;;;;;-0.19;91.31;96781.33;103289;1324;25714;-85
2021/12/24 05:10:52;;;;;;;17.60;10.70;;;;;;;-0.15;91.30;96781.05;103140;1319;138606;-85
2021/12/24 05:13:22;;;;;;;17.10;10.80;;;;;;;-0.12;91.20;96778.02;103451;1319;30562;-85
2021/12/24 05:16:21;;;;;;;21.50;11.70;;;;;;;-0.11;91.11;96781.59;103507;1321;22600;-85
2021/12/24 05:21:50;;;;;;;;;;;;;;;-0.06;91.21;96783.69;103086;1322;24883;-85
2021/12/24 05:24:23;;;;;;;18.50;10.20;;;;;;;-0.06;90.93;96782.66;103318;1323;124341;-85
2021/12/24 05:26:56;;;;;;;16.50;10.40;;;;;;;-0.04;91.26;96775.61;103296;1320;24282;-85
2021/12/24 05:29:23;;;;;;;14.40;9.30;;;;;;;-0.02;91.23;96773.95;103208;1321;137610;-85
2021/12/24 05:31:54;;;;;;;18.80;11.30;;;;;;;-0.00;91.05;96771.92;103281;1325;22629;-86
2021/12/24 05:34:21;;;;;;;16.60;11.20;;;;;;;0.00;91.01;96774.66;102848;1324;25322;-86
2021/12/24 05:36:50;;;;;;;19.00;11.40;;;;;;;0.04;91.04;96771.05;103027;1322;222362;-86
2021/12/24 05:39:18;;;;;;;16.10;10.30;;;;;;;0.06;91.09;96763.88;103224;1321;25250;-86
2021/12/24 05:41:46;;;;;;;15.40;10.10;;;;;;;0.08;90.93;96757.61;103342;1325;137765;-86
2021/12/24 05:44:16;;;;;;;20.00;11.60;;;;;;;0.08;91.26;96760.29;103353;1322;23344;-86
2021/12/24 05:47:03;;;;;;;17.80;10.90;;;;;;;0.08;90.94;96755.36;103156;1319;138264;-86
2021/12/24 05:49:48;;;;;;;16.70;10.20;;;;;;;0.09;91.05;96747.83;103300;1323;22599;-86
2021/12/24 05:52:34;;;;;;;17.50;10.50;;;;;;;0.11;91.24;96751.18;103127;1319;138051;-86
2021/12/24 05:55:12;;;;;;;15.20;10.10;;;;;;;0.13;91.16;96757.75;103267;1318;22745;-87
2021/12/24 05:57:38;;;;;;;19.90;11.60;;;;;;;0.13;91.10;96757.34;103025;1328;23960;-86
2021/12/24 06:00:09;;;;;;;16.20;10.60;;;;;;;0.14;91.07;96756.02;103266;1321;139060;-86
2021/12/24 06:02:44;;;;;;;17.20;10.70;;;;;;;0.16;91.10;96755.70;103606;1319;24425;-87
2021/12/24 06:05:10;;;;;;;16.80;10.70;;;;;;;0.18;91.11;96757.21;103196;1319;138011;-85
2021/12/24 06:07:37;;;;;;;16.40;10.90;;;;;;;0.19;91.20;96755.59;103097;1320;24327;-87
2021/12/24 06:10:04;;;;;;;17.10;11.60;;;;;;;0.20;91.22;96748.92;103506;1319;22674;-87
2021/12/24 06:12:30;;;;;;;19.60;11.40;;;;;;;0.21;91.21;96753.36;103439;1318;138070;-87
2021/12/24 06:15:11;;;;;;;19.40;12.10;;;;;;;0.23;91.14;96752.39;103193;1318;22586;-86
2021/12/24 06:17:39;;;;;;;18.00;11.10;;;;;;;0.27;91.06;96752.19;103258;1319;137702;-87
2021/12/24 06:20:07;;;;;;;17.30;11.50;;;;;;;0.28;91.42;96750.52;103132;1322;22652;-86
2021/12/24 06:22:33;;;;;;;19.20;12.40;;;;;;;0.28;91.20;96757.52;103622;1318;137565;-86
2021/12/24 06:25:01;;;;;;;20.30;12.20;;;;;;;0.29;91.14;96757.98;103340;1321;23214;-87
2021/12/24 06:27:27;;;;;;;17.70;12.20;;;;;;;0.30;91.31;96760.23;103468;1319;23363;-86
2021/12/24 06:29:54;;;;;;;18.20;12.10;;;;;;;0.32;91.34;96760.94;103099;1321;142502;-86
2021/12/24 06:32:20;;;;;;;19.70;11.50;;;;;;;0.34;91.27;96761.19;103711;1324;22633;-87
2021/12/24 06:34:48;;;;;;;21.30;11.70;;;;;;;0.34;91.23;96759.81;103270;1319;137505;-86
2021/12/24 06:37:15;;;;;;;21.00;13.00;;;;;;;0.38;91.27;96760.38;103536;1318;24339;-86
2021/12/24 06:39:41;;;;;;;17.90;11.50;;;;;;;0.40;91.31;96758.31;103678;1318;22595;-87
2021/12/24 06:42:08;;;;;;;20.40;11.90;;;;;;;0.43;91.26;96764.83;103784;1318;138244;-87
2021/12/24 06:44:34;;;;;;;20.00;12.10;;;;;;;0.46;91.29;96763.64;103617;1325;22602;-88
2021/12/24 06:47:01;;;;;;;21.10;12.10;;;;;;;0.49;91.34;96762.16;103640;1318;137594;-87
2021/12/24 06:49:27;;;;;;;23.90;13.70;;;;;;;0.51;91.43;96761.50;103929;1319;22612;-88
2021/12/24 06:51:54;;;;;;;23.10;13.00;;;;;;;0.54;91.42;96762.90;103616;1321;25279;-88
2021/12/24 06:54:23;;;;;;;21.70;13.10;;;;;;;0.57;91.38;96770.07;103643;1323;138114;-89
2021/12/24 06:56:53;;;;;;;22.00;13.30;;;;;;;0.62;91.48;96764.63;103591;1323;22641;-89
2021/12/24 06:59:19;;;;;;;20.60;12.20;;;;;;;0.66;91.45;96760.45;103765;1319;138599;-87
2021/12/24 07:01:50;;;;;;;24.00;13.70;;;;;;;0.70;91.31;96760.09;103759;1322;24432;-88
2021/12/24 07:04:16;;;;;;;24.60;14.10;;;;;;;0.72;91.37;96759.30;103724;1318;23133;-88
2021/12/24 07:06:45;;;;;;;20.50;13.00;;;;;;;0.76;91.54;96769.98;103601;1319;138055;-87
2021/12/24 07:09:14;;;;;;;28.40;15.20;;;;;;;0.80;91.39;96774.72;103318;1325;22618;-86
2021/12/24 07:11:41;;;;;;;19.90;11.60;;;;;;;0.81;91.25;96776.96;103882;1319;137542;-86
2021/12/24 07:14:08;;;;;;;20.30;13.30;;;;;;;0.83;91.75;96777.94;103617;1318;22658;-85
2021/12/24 07:16:35;;;;;;;24.60;14.40;;;;;;;0.84;91.74;96771.16;103150;1321;138389;-86
2021/12/24 07:19:01;;;;;;;23.70;13.20;;;;;;;0.88;91.57;96762.10;103872;1319;22606;-86
2021/12/24 07:21:28;;;;;;;23.00;13.70;;;;;;;0.92;91.71;96758.20;104332;1318;22621;-86
2021/12/24 07:23:55;;;;;;;22.80;14.10;;;;;;;0.96;91.72;96755.47;103557;1321;137728;-87
2021/12/24 07:26:21;;;;;;;30.20;17.90;;;;;;;0.99;91.77;96745.95;103604;1321;23054;-86
2021/12/24 07:28:47;;;;;;;27.20;15.50;;;;;;;1.03;91.80;96748.64;103382;1323;139175;-85
2021/12/24 07:31:14;;;;;;;21.80;14.30;;;;;;;1.06;91.87;96751.23;103413;1319;23410;-89
2021/12/24 07:33:40;;;;;;;24.80;14.30;;;;;;;1.10;91.97;96746.52;103601;1319;22805;-88
2021/12/24 07:36:06;;;;;;;24.60;14.40;;;;;;;1.13;91.96;96747.46;103445;1324;137632;-89
2021/12/24 07:38:33;;;;;;;24.90;15.20;;;;;;;1.16;91.94;96743.62;103545;1325;24327;-88
2021/12/24 07:41:00;;;;;;;26.90;16.00;;;;;;;1.19;92.02;96744.81;103692;1319;139364;-87
2021/12/24 07:43:27;;;;;;;24.30;15.10;;;;;;;1.23;92.31;96741.60;103421;1321;22669;-87
2021/12/24 07:45:55;;;;;;;26.70;14.50;;;;;;;1.26;91.94;96749.42;103569;1318;22603;-86
2021/12/24 07:48:28;;;;;;;26.80;16.70;;;;;;;1.31;92.06;96749.65;103385;1324;138013;-85
2021/12/24 07:53:23;;;;;;;26.50;16.80;;;;;;;1.37;91.93;96749.15;103051;1324;138177;-86
2021/12/24 07:55:51;;;;;;;27.90;15.70;;;;;;;1.41;91.98;96755.45;103095;1321;22746;-83
2021/12/24 07:58:18;;;;;;;29.00;15.70;;;;;;;1.46;92.04;96747.73;103303;1319;25376;-85
2021/12/24 08:00:46;;;;;;;25.80;14.80;;;;;;;1.52;92.09;96751.52;103376;1318;138763;-85
2021/12/24 08:03:12;;;;;;;26.60;15.70;;;;;;;1.56;92.00;96757.33;103535;1318;25430;-85
2021/12/24 08:05:40;;;;;;;31.30;17.80;;;;;;;1.61;92.13;96760.71;103302;1319;137935;-85
2021/12/24 08:08:09;;;;;;;34.40;18.80;;;;;;;1.64;91.85;96758.48;102932;1325;22612;-87
2021/12/24 08:10:37;;;;;;;29.90;18.10;;;;;;;1.67;91.88;96757.00;103397;1318;138455;-86
2021/12/24 08:13:04;;;;;;;29.30;17.90;;;;;;;1.72;91.86;96760.67;103245;1324;24445;-86
2021/12/24 08:15:31;;;;;;;31.80;17.60;;;;;;;1.75;91.81;96747.70;103476;1318;24346;-84
2021/12/24 08:17:57;;;;;;;27.60;16.50;;;;;;;1.80;91.87;96743.38;103224;1325;137684;-83
2021/12/24 08:20:25;;;;;;;24.60;14.70;;;;;;;1.86;91.75;96738.52;103250;1325;24241;-83
2021/12/24 08:22:53;;;;;;;25.60;15.80;;;;;;;1.92;91.70;96733.06;103542;1319;138560;-83
2021/12/24 08:25:21;;;;;;;25.30;14.80;;;;;;;1.97;91.68;96728.10;103129;1326;25375;-83
2021/12/24 08:27:48;;;;;;;31.80;16.10;;;;;;;2.01;91.51;96734.14;103556;1319;22642;-83
2021/12/24 08:30:14;;;;;;;26.20;17.20;;;;;;;2.03;91.41;96733.09;103813;1319;138207;-82
2021/12/24 08:32:42;;;;;;;29.20;18.50;;;;;;;2.07;91.35;96735.53;103876;1318;23494;-82
2021/12/24 08:35:12;;;;;;;28.60;16.60;;;;;;;2.13;91.24;96733.94;104363;1318;138974;-82
2021/12/24 08:37:39;;;;;;;31.30;17.40;;;;;;;2.20;91.25;96736.13;103711;1319;24373;-82
2021/12/24 08:40:07;;;;;;;25.20;14.50;;;;;;;2.26;91.26;96734.07;103809;1318;24227;-82
2021/12/24 08:42:34;;;;;;;24.70;14.50;;;;;;;2.30;91.13;96734.14;103660;1322;138878;-83
2021/12/24 08:45:00;;;;;;;26.60;15.40;;;;;;;2.32;91.20;96733.55;103625;1325;22741;-83
2021/12/24 08:47:26;;;;;;;27.70;16.50;;;;;;;2.35;91.05;96740.00;103967;1324;138612;-82
2021/12/24 08:49:52;;;;;;;27.10;13.70;;;;;;;2.38;90.94;96738.52;102910;1319;25265;-81
2021/12/24 08:52:19;;;;;;;23.00;14.60;;;;;;;2.42;90.91;96742.79;103109;1324;23499;-82
2021/12/24 08:54:45;;;;;;;25.00;14.10;;;;;;;2.46;90.91;96738.05;103489;1323;138076;-81
2021/12/24 08:57:11;;;;;;;21.80;13.00;;;;;;;2.50;90.98;96741.90;103043;1321;24224;-82
2021/12/24 08:59:37;;;;;;;27.70;14.50;;;;;;;2.53;91.08;96746.57;104112;1319;137612;-82
2021/12/24 09:02:04;;;;;;;18.90;11.40;;;;;;;2.56;90.95;96739.77;104428;1318;25366;-82
2021/12/24 09:04:30;;;;;;;21.90;12.40;;;;;;;2.62;91.05;96724.89;102951;1322;138854;-81
2021/12/24 09:06:57;;;;;;;20.20;11.40;;;;;;;2.73;91.09;96721.36;103443;1319;25460;-82
2021/12/24 09:09:23;;;;;;;17.20;11.10;;;;;;;2.84;90.99;96721.96;103659;1322;24372;-83
2021/12/24 09:11:50;;;;;;;21.60;12.80;;;;;;;2.91;90.86;96715.80;103721;1318;137981;-84
2021/12/24 09:14:18;;;;;;;23.90;12.70;;;;;;;3.00;91.24;96711.41;103287;1325;24287;-83
2021/12/24 09:16:47;;;;;;;20.10;12.80;;;;;;;3.17;90.97;96709.94;103134;1323;139067;-82
2021/12/24 09:19:18;;;;;;;17.30;10.40;;;;;;;3.27;90.55;96713.61;103236;1318;22739;-82
2021/12/24 09:21:46;;;;;;;19.00;11.30;;;;;;;3.36;90.11;96709.48;103360;1319;24521;-82
2021/12/24 09:24:12;;;;;;;17.30;9.80;;;;;;;3.45;89.97;96704.41;103375;1324;137930;-81
2021/12/24 09:26:39;;;;;;;19.60;11.50;;;;;;;3.56;89.73;96701.85;103319;1323;23396;-81
2021/12/24 09:29:08;;;;;;;18.20;10.50;;;;;;;3.67;89.71;96692.77;103465;1323;138577;-80
2021/12/24 09:31:35;;;;;;;18.00;10.40;;;;;;;3.80;89.37;96687.45;103574;1321;25223;-79
2021/12/24 09:34:01;;;;;;;17.90;11.00;;;;;;;3.91;89.31;96680.08;103122;1320;22641;-79
2021/12/24 09:36:28;;;;;;;19.40;10.80;;;;;;;3.98;88.88;96674.95;103059;1319;137783;-80
2021/12/24 09:39:02;;;;;;;15.80;10.40;;;;;;;4.03;88.82;96668.23;103164;1320;25269;-80
2021/12/24 09:41:28;;;;;;;16.60;10.90;;;;;;;4.05;88.63;96669.45;103692;1319;139396;-79
2021/12/24 09:43:58;;;;;;;18.70;11.10;;;;;;;4.09;88.39;96667.40;103384;1322;24386;-79
2021/12/24 09:46:26;;;;;;;15.50;9.90;;;;;;;4.12;88.36;96663.36;103376;1319;23555;-79
2021/12/24 09:48:53;;;;;;;20.10;10.90;;;;;;;4.13;88.00;96659.44;103486;1323;137319;-79
2021/12/24 09:51:23;;;;;;;21.70;11.10;;;;;;;4.12;87.97;96657.05;102963;1322;24250;-80
2021/12/24 09:53:50;;;;;;;17.60;11.90;;;;;;;4.13;88.22;96650.05;103068;1319;137713;-80
2021/12/24 09:56:17;;;;;;;20.50;11.60;;;;;;;4.15;88.25;96649.81;103527;1322;22767;-80
2021/12/24 09:58:43;;;;;;;19.80;11.40;;;;;;;4.20;88.12;96650.31;103316;1321;138932;-79
2021/12/24 10:01:27;;;;;;;18.40;10.90;;;;;;;4.23;87.94;96652.02;103227;1321;22574;-80
2021/12/24 10:04:02;;;;;;;20.40;11.50;;;;;;;4.23;87.83;96649.92;103251;1324;22738;-81
2021/12/24 10:06:29;;;;;;;19.40;11.60;;;;;;;4.23;87.84;96651.20;103156;1328;138037;-80
2021/12/24 10:09:07;;;;;;;17.60;10.10;;;;;;;4.24;87.66;96652.52;103760;1319;22605;-80
2021/12/24 10:11:56;;;;;;;17.20;10.40;;;;;;;4.29;87.84;96651.40;104260;1319;138780;-80
2021/12/24 10:14:30;;;;;;;14.40;8.90;;;;;;;4.35;88.03;96649.48;103663;1320;22660;-80
2021/12/24 10:16:56;;;;;;;15.90;9.50;;;;;;;4.40;87.96;96649.02;103757;1320;137931;-80
2021/12/24 10:19:24;;;;;;;13.40;8.20;;;;;;;4.44;87.97;96653.48;103599;1322;22608;-80
2021/12/24 10:22:03;;;;;;;16.10;9.40;;;;;;;4.45;87.64;96653.61;103410;1325;25333;-80
2021/12/24 10:24:30;;;;;;;13.00;8.90;;;;;;;4.47;87.77;96652.13;103379;1319;138582;-80
2021/12/24 10:26:59;;;;;;;13.80;8.10;;;;;;;4.51;87.63;96649.64;103884;1325;22628;-80
2021/12/24 10:29:30;;;;;;;14.00;8.30;;;;;;;4.49;87.68;96649.08;103634;1319;137707;-80
2021/12/24 10:32:06;;;;;;;12.00;8.20;;;;;;;4.48;87.83;96645.64;103754;1319;22611;-80
2021/12/24 10:34:37;;;;;;;14.10;9.10;;;;;;;4.50;87.97;96639.44;104109;1319;138747;-80
2021/12/24 10:37:05;;;;;;;13.30;8.00;;;;;;;4.54;87.84;96630.69;104031;1319;22567;-80
2021/12/24 10:39:37;;;;;;;13.40;7.30;;;;;;;4.61;87.95;96622.84;103727;1324;30423;-79
2021/12/24 10:42:20;;;;;;;12.30;8.00;;;;;;;4.65;87.98;96613.09;103634;1325;137771;-79
2021/12/24 10:44:49;;;;;;;13.00;7.30;;;;;;;4.69;87.85;96607.58;103600;1324;22630;-79
2021/12/24 10:47:20;;;;;;;13.90;8.60;;;;;;;4.71;87.88;96607.15;104182;1319;138085;-80
2021/12/24 10:54:49;;;;;;;13.00;8.70;;;;;;;4.79;88.03;96605.89;103332;1322;137929;-82
2021/12/24 10:57:17;;;;;;;14.30;9.00;;;;;;;4.85;87.85;96603.04;104023;1319;24154;-82
2021/12/24 10:59:45;;;;;;;12.70;8.50;;;;;;;4.92;87.89;96593.47;104084;1319;137798;-82
2021/12/24 11:02:12;;;;;;;12.10;7.50;;;;;;;4.99;87.80;96588.02;103582;1325;22596;-81
2021/12/24 11:04:38;;;;;;;9.90;7.20;;;;;;;5.07;87.69;96591.49;103584;1319;138538;-80
2021/12/24 11:07:41;;;;;;;13.10;8.10;;;;;;;5.13;87.52;96586.36;103569;1325;22783;-82
2021/12/24 11:10:19;;;;;;;11.00;7.10;;;;;;;5.19;87.55;96590.27;104110;1318;23003;-82
2021/12/24 11:12:48;;;;;;;12.20;7.70;;;;;;;5.20;87.37;96585.15;103103;1325;138713;-81
2021/12/24 11:15:37;;;;;;;11.60;7.50;;;;;;;5.19;87.20;96586.58;103593;1318;22609;-81
2021/12/24 11:18:46;;;;;;;14.70;7.40;;;;;;;5.19;87.16;96591.45;103845;1323;140747;-81
2021/12/24 11:21:19;;;;;;;12.90;7.90;;;;;;;5.19;87.39;96592.58;104225;1318;22657;-82
2021/12/24 11:23:46;;;;;;;10.10;6.80;;;;;;;5.18;87.39;96593.80;104241;1318;138180;-82
2021/12/24 11:26:15;;;;;;;12.50;8.40;;;;;;;5.16;87.37;96603.34;103826;1321;22596;-81
2021/12/24 11:28:43;;;;;;;12.50;8.00;;;;;;;5.11;87.53;96595.21;103425;1321;138170;-81
2021/12/24 11:31:24;;;;;;;13.10;7.00;;;;;;;5.09;87.60;96587.86;104109;1323;22746;-81
2021/12/24 11:33:52;;;;;;;11.40;7.50;;;;;;;5.07;87.73;96575.52;104318;1319;25479;-81
2021/12/24 11:36:21;;;;;;;11.80;7.10;;;;;;;5.07;87.81;96564.90;103561;1319;137935;-80
2021/12/24 11:38:56;;;;;;;16.10;7.90;;;;;;;5.08;87.93;96551.86;103617;1322;23398;-81
2021/12/24 11:41:28;;;;;;;10.10;5.40;;;;;;;5.08;88.07;96545.39;103943;1319;137797;-80
2021/12/24 11:43:56;;;;;;;12.20;7.20;;;;;;;5.09;88.33;96544.95;104039;1318;22602;-81
2021/12/24 11:46:25;;;;;;;10.80;6.70;;;;;;;5.15;88.39;96540.19;103649;1322;22597;-81
2021/12/24 11:48:54;;;;;;;11.50;7.40;;;;;;;5.21;88.34;96544.14;103199;1323;138272;-82
2021/12/24 11:51:24;;;;;;;11.00;7.30;;;;;;;5.29;88.18;96548.40;103418;1322;25396;-82
2021/12/24 11:53:53;;;;;;;11.30;7.40;;;;;;;5.34;88.13;96543.31;103372;1318;137615;-82
2021/12/24 11:56:20;;;;;;;12.00;7.30;;;;;;;5.33;88.03;96542.49;103395;1323;22919;-81
2021/12/24 11:58:58;;;;;;;11.50;7.20;;;;;;;5.31;88.09;96549.61;103509;1319;138447;-82
2021/12/24 12:01:27;;;;;;;11.20;6.90;;;;;;;5.29;88.05;96545.06;103481;1323;30940;-82
2021/12/24 12:03:56;;;;;;;;;;;;;;;5.27;88.24;96543.96;103495;1323;24386;-82
2021/12/24 12:06:22;;;;;;;11.40;6.40;;;;;;;5.23;88.13;96542.09;103295;1323;123815;-82
2021/12/24 12:08:52;;;;;;;12.50;7.30;;;;;;;5.17;88.45;96546.53;103477;1323;22631;-82
2021/12/24 12:11:34;;;;;;;11.60;6.70;;;;;;;5.13;88.57;96545.53;103052;1325;138758;-82
2021/12/24 12:14:05;;;;;;;13.50;7.10;;;;;;;5.12;88.88;96543.85;103425;1319;23345;-81
2021/12/24 12:16:43;;;;;;;10.60;7.30;;;;;;;5.13;88.89;96539.91;102829;1326;139433;-84
2021/12/24 12:22:16;;;;;;;12.60;7.00;;;;;;;5.09;88.99;96535.73;104211;1319;30736;-84
2021/12/24 12:25:03;;;;;;;13.70;7.60;;;;;;;5.04;89.19;96538.21;104900;1318;139040;-84
2021/12/24 12:27:35;;;;;;;11.90;7.30;;;;;;;4.99;89.14;96537.96;103884;1319;22729;-85
2021/12/24 12:30:24;;;;;;;11.50;7.30;;;;;;;4.96;89.29;96536.98;103210;1324;141005;-85
2021/12/24 12:33:12;;;;;;;16.30;8.40;;;;;;;4.94;89.46;96528.31;103397;1325;22626;-85
2021/12/24 12:35:41;;;;;;;11.40;7.30;;;;;;;4.96;89.55;96519.21;103414;1325;138427;-86
2021/12/24 12:38:40;;;;;;;12.20;7.30;;;;;;;5.02;89.73;96515.76;103670;1324;25414;-86
2021/12/24 12:41:35;;;;;;;14.20;7.90;;;;;;;5.05;89.72;96521.06;103227;1326;138114;-88
2021/12/24 12:44:10;;;;;;;11.90;6.90;;;;;;;5.06;89.63;96533.05;103484;1323;22671;-85
2021/12/24 12:46:40;;;;;;;14.10;7.80;;;;;;;5.05;89.64;96544.38;103426;1324;138395;-87
2021/12/24 12:49:16;;;;;;;15.30;8.80;;;;;;;5.03;89.65;96546.30;103695;1322;22737;-86
2021/12/24 12:52:02;;;;;;;16.60;7.60;;;;;;;5.03;89.75;96547.91;103538;1323;23271;-87
2021/12/24 12:54:46;;;;;;;13.60;7.50;;;;;;;5.02;89.90;96541.11;103290;1319;137904;-87
2021/12/24 12:57:37;;;;;;;13.20;7.60;;;;;;;5.00;89.91;96543.20;103815;1318;23961;-86
2021/12/24 13:00:27;;;;;;;13.90;7.60;;;;;;;4.97;89.95;96540.52;103440;1318;140022;-88
2021/12/24 13:02:56;;;;;;;12.70;7.20;;;;;;;4.95;90.12;96542.51;103527;1322;30529;-86
2021/12/24 13:05:24;;;;;;;;;;;;;;;4.94;89.99;96538.69;103413;1319;138397;-86
2021/12/24 13:07:50;;;;;;;14.60;7.60;;;;;;;4.95;90.30;96538.05;103468;1319;22585;-86
2021/12/24 13:10:17;;;;;;;12.40;7.60;;;;;;;4.96;90.50;96540.20;103298;1318;22610;-85
2021/12/24 13:13:03;;;;;;;10.50;7.20;;;;;;;4.98;90.58;96543.40;103375;1319;138040;-86
2021/12/24 13:15:33;;;;;;;10.50;6.40;;;;;;;4.98;90.76;96539.67;103543;1318;22727;-83
2021/12/24 13:18:05;;;;;;;13.40;7.60;;;;;;;5.00;90.95;96533.60;103336;1324;138370;-85
2021/12/24 13:22:26;;;;;;;15.70;9.20;;;;;;;5.03;91.07;96548.62;103375;1325;22606;-84
2021/12/24 13:23:23;;;;;;;15.40;8.10;;;;;;;5.06;91.06;96545.41;103181;1320;138130;-86
2021/12/24 13:25:49;;;;;;;17.10;9.70;;;;;;;5.09;91.10;96553.38;103432;1325;23369;-87
2021/12/24 13:28:15;;;;;;;12.00;7.30;;;;;;;5.09;91.25;96560.01;103479;1325;24362;-87
2021/12/24 13:30:56;;;;;;;14.00;7.30;;;;;;;5.09;91.23;96547.71;103074;1326;138658;-87
2021/12/24 13:33:22;;;;;;;12.70;7.90;;;;;;;5.11;91.16;96556.83;103334;1322;25339;-87